Terminal Aerodrome Forecast
Issued by NWS Shreveport, LA

Home | Current Version | Previous Version | Text Only | Print | Product List | Glossary On
Versions: 1 2 3 4 5 6 7 8 9 10 11 12 13 14
000
FTUS44 KSHV 262322
TAFSHV
TAF
KSHV 262322Z 2700/2724 33003KT P6SM SCT050 SCT150 SCT250
      TEMPO 2700/2704 BKN045
     FM271500 33006KT P6SM SCT030 SCT150 SCT250
     FM271800 32008KT P6SM SCT050 SCT250=

USA.gov is the U.S. government's official web portal to all federal, state and local government web resources and services.